createdAt,value
2022-12-19T00:01:42.338Z,54.53
2022-12-19T00:04:15.896Z,54.22
2022-12-19T00:06:49.667Z,54.32
2022-12-19T00:09:22.442Z,54.46
2022-12-19T00:11:54.313Z,54.22
2022-12-19T00:14:27.416Z,54.23
2022-12-19T00:17:00.259Z,54.35
2022-12-19T00:19:33.508Z,54.41
2022-12-19T00:22:11.404Z,54.62
2022-12-19T00:24:44.356Z,54.50
2022-12-19T00:27:17.793Z,54.50
2022-12-19T00:29:50.429Z,54.55
2022-12-19T00:32:24.916Z,54.66
2022-12-19T00:34:57.188Z,54.76
2022-12-19T00:37:33.597Z,54.89
2022-12-19T00:40:08.171Z,54.75
2022-12-19T00:42:40.949Z,55.18
2022-12-19T00:45:16.261Z,55.05
2022-12-19T00:47:51.739Z,54.69
2022-12-19T00:50:24.742Z,54.71
2022-12-19T00:52:58.763Z,54.80
2022-12-19T00:55:32.297Z,54.96
2022-12-19T00:58:06.937Z,54.80
2022-12-19T01:00:40.837Z,54.89
2022-12-19T01:03:18.903Z,55.11
2022-12-19T01:05:52.721Z,55.04
2022-12-19T01:08:27.516Z,54.89
2022-12-19T01:11:02.748Z,55.03
2022-12-19T01:13:36.616Z,54.75
2022-12-19T01:16:13.048Z,54.61
2022-12-19T01:18:44.900Z,54.64
2022-12-19T01:21:17.009Z,54.81
2022-12-19T01:23:51.900Z,54.91
2022-12-19T01:26:24.345Z,54.97
2022-12-19T01:28:57.606Z,54.89
2022-12-19T01:31:35.432Z,54.71
2022-12-19T01:34:09.522Z,54.60
2022-12-19T01:36:45.209Z,54.72
2022-12-19T01:39:18.851Z,54.70
2022-12-19T01:41:51.351Z,54.50
2022-12-19T01:44:27.651Z,54.34
2022-12-19T01:47:01.141Z,54.30
2022-12-19T01:49:35.673Z,54.40
2022-12-19T01:52:11.699Z,54.50
2022-12-19T01:54:48.366Z,54.58
2022-12-19T01:57:23.416Z,54.54
2022-12-19T01:59:57.719Z,54.64
2022-12-19T02:02:33.467Z,54.76
2022-12-19T02:05:11.059Z,54.68
2022-12-19T02:07:44.930Z,54.87
2022-12-19T02:10:18.293Z,54.94
2022-12-19T02:12:51.692Z,55.01
2022-12-19T02:15:26.428Z,55.03
2022-12-19T02:18:10.329Z,55.03
2022-12-19T02:21:12.470Z,54.79
2022-12-19T02:24:15.411Z,54.70
2022-12-19T02:26:58.250Z,54.99
2022-12-19T02:29:59.588Z,54.73
2022-12-19T02:32:36.615Z,54.65
2022-12-19T02:35:13.928Z,54.78
2022-12-19T02:37:54.583Z,54.66
2022-12-19T02:40:33.804Z,54.72
2022-12-19T02:43:07.465Z,54.67
2022-12-19T02:45:42.672Z,54.64
2022-12-19T02:48:19.300Z,54.58
2022-12-19T02:50:51.591Z,54.60
2022-12-19T02:53:24.930Z,54.52
2022-12-19T02:56:10.626Z,54.48
2022-12-19T02:58:57.214Z,54.46
2022-12-19T03:01:46.037Z,54.44
2022-12-19T03:04:26.873Z,54.49
2022-12-19T03:07:08.477Z,54.38
2022-12-19T03:09:51.371Z,54.74
2022-12-19T03:12:27.852Z,54.96
2022-12-19T03:15:04.375Z,54.95
2022-12-19T03:17:41.149Z,54.51
2022-12-19T03:20:21.269Z,54.36
2022-12-19T03:22:53.400Z,54.49
2022-12-19T03:25:27.661Z,54.58
2022-12-19T03:28:08.414Z,54.75
2022-12-19T03:30:42.962Z,54.70
2022-12-19T03:33:16.609Z,54.33
2022-12-19T03:35:53.467Z,54.53
2022-12-19T03:38:25.739Z,54.43
2022-12-19T03:41:00.914Z,54.49
2022-12-19T03:43:35.968Z,54.65
2022-12-19T03:46:15.163Z,54.76
2022-12-19T03:48:49.603Z,54.79
2022-12-19T03:51:33.571Z,54.61
2022-12-19T03:54:10.583Z,54.48
2022-12-19T03:56:51.880Z,54.58
2022-12-19T03:59:31.468Z,54.64
2022-12-19T04:02:05.933Z,54.80
2022-12-19T04:04:44.276Z,54.76
2022-12-19T04:07:18.478Z,54.51
2022-12-19T04:09:51.618Z,54.43
2022-12-19T04:12:28.872Z,54.62
2022-12-19T04:15:03.296Z,54.71
2022-12-19T04:17:39.763Z,54.51
2022-12-19T04:20:14.476Z,54.51
2022-12-19T04:22:52.194Z,54.66
2022-12-19T04:25:29.743Z,54.80
2022-12-19T04:28:10.059Z,54.97
2022-12-19T04:30:43.770Z,54.68
2022-12-19T04:33:16.555Z,54.57
2022-12-19T04:35:50.592Z,54.41
2022-12-19T04:38:25.712Z,54.44
2022-12-19T04:40:58.558Z,54.44
2022-12-19T04:43:32.124Z,54.39
2022-12-19T04:46:05.845Z,54.45
2022-12-19T04:48:39.867Z,54.44
2022-12-19T04:51:11.876Z,54.46
2022-12-19T04:53:45.647Z,54.58
2022-12-19T04:56:21.527Z,54.63
2022-12-19T04:59:04.568Z,54.67
2022-12-19T05:01:36.428Z,54.65
2022-12-19T05:04:10.955Z,54.43
2022-12-19T05:06:42.885Z,54.39
2022-12-19T05:09:15.356Z,54.45
2022-12-19T05:11:48.708Z,54.67
2022-12-19T05:14:20.687Z,54.78
2022-12-19T05:17:01.153Z,54.69
2022-12-19T05:19:36.547Z,54.58
2022-12-19T05:22:09.121Z,54.71
2022-12-19T05:24:41.016Z,54.50
2022-12-19T05:27:13.604Z,54.55
2022-12-19T05:29:45.423Z,54.54
2022-12-19T05:32:17.195Z,54.46
2022-12-19T05:34:48.982Z,54.35
2022-12-19T05:37:20.960Z,54.16
2022-12-19T05:39:52.801Z,54.19
2022-12-19T05:42:24.775Z,54.32
2022-12-19T05:44:56.663Z,54.23
2022-12-19T05:47:28.616Z,54.08
2022-12-19T05:50:00.673Z,54.19
2022-12-19T05:52:33.443Z,54.10
2022-12-19T05:55:05.749Z,54.05
2022-12-19T05:57:37.987Z,54.02
2022-12-19T06:00:13.077Z,53.80
2022-12-19T06:02:48.019Z,53.92
2022-12-19T06:05:20.337Z,53.92
2022-12-19T06:07:52.678Z,53.86
2022-12-19T06:10:24.714Z,53.97
2022-12-19T06:12:57.575Z,53.97
2022-12-19T06:15:29.567Z,53.71
2022-12-19T06:18:02.689Z,53.87
2022-12-19T06:20:34.453Z,53.85
2022-12-19T06:23:06.266Z,53.92
2022-12-19T06:25:38.288Z,53.86
2022-12-19T06:28:10.390Z,53.83
2022-12-19T06:30:42.121Z,53.94
2022-12-19T06:33:14.299Z,54.05
2022-12-19T06:35:46.689Z,53.97
2022-12-19T06:38:18.788Z,53.99
2022-12-19T06:41:08.241Z,54.10
2022-12-19T06:43:40.523Z,54.00
2022-12-19T06:46:12.808Z,53.79
2022-12-19T06:48:44.801Z,53.68
2022-12-19T06:51:16.926Z,53.79
2022-12-19T06:53:48.803Z,53.93
2022-12-19T06:56:21.597Z,53.90
2022-12-19T06:58:53.842Z,53.92
2022-12-19T07:01:30.690Z,53.99
2022-12-19T07:04:03.883Z,54.00
2022-12-19T07:06:35.831Z,53.89
2022-12-19T07:09:15.660Z,53.94
2022-12-19T07:11:47.610Z,53.87
2022-12-19T07:14:19.503Z,53.86
2022-12-19T07:16:53.228Z,53.95
2022-12-19T07:19:25.448Z,53.97
2022-12-19T07:21:57.388Z,53.81
2022-12-19T07:24:29.537Z,53.76
2022-12-19T07:27:01.527Z,53.87
2022-12-19T07:29:33.701Z,53.92
2022-12-19T07:32:05.674Z,53.82
2022-12-19T07:34:37.755Z,53.86
2022-12-19T07:37:09.705Z,53.91
2022-12-19T07:39:41.565Z,53.81
2022-12-19T07:42:13.327Z,53.74
2022-12-19T07:44:45.171Z,53.84
2022-12-19T07:47:17.484Z,53.85
2022-12-19T07:49:49.515Z,53.90
2022-12-19T07:52:21.368Z,53.90
2022-12-19T07:54:53.472Z,53.90
2022-12-19T07:57:25.442Z,53.93
2022-12-19T07:59:57.511Z,53.85
2022-12-19T08:02:29.543Z,53.89
2022-12-19T08:05:04.427Z,53.82
2022-12-19T08:07:36.253Z,53.89
2022-12-19T08:10:11.511Z,53.83
2022-12-19T08:12:43.734Z,53.87
2022-12-19T08:15:15.709Z,53.75
2022-12-19T08:17:47.633Z,53.94
2022-12-19T08:20:20.461Z,53.88
2022-12-19T08:22:52.647Z,53.69
2022-12-19T08:25:24.593Z,53.62
2022-12-19T08:27:57.097Z,53.72
2022-12-19T08:30:30.860Z,53.81
2022-12-19T08:33:03.059Z,53.85
2022-12-19T08:35:35.301Z,53.84
2022-12-19T08:38:07.518Z,53.46
2022-12-19T08:40:44.244Z,53.43
2022-12-19T08:43:18.979Z,53.80
2022-12-19T08:45:52.456Z,53.70
2022-12-19T08:48:24.991Z,53.61
2022-12-19T08:50:57.894Z,53.54
2022-12-19T08:53:32.194Z,53.67
2022-12-19T08:56:07.739Z,53.63
2022-12-19T08:58:40.198Z,53.64
2022-12-19T09:01:15.459Z,53.85
2022-12-19T09:03:50.253Z,53.82
2022-12-19T09:06:39.682Z,53.72
2022-12-19T09:09:11.544Z,53.87
2022-12-19T09:11:47.416Z,53.61
2022-12-19T09:14:20.967Z,54.05
2022-12-19T09:16:53.565Z,53.82
2022-12-19T09:19:25.624Z,53.95
2022-12-19T09:21:57.491Z,53.69
2022-12-19T09:24:29.750Z,53.30
2022-12-19T09:27:05.543Z,53.33
2022-12-19T09:29:37.391Z,53.53
2022-12-19T09:32:09.370Z,53.57
2022-12-19T09:34:41.220Z,53.62
2022-12-19T09:37:16.918Z,53.40
2022-12-19T09:39:49.880Z,53.49
2022-12-19T09:42:46.560Z,53.23
2022-12-19T09:45:38.838Z,53.12
2022-12-19T09:48:24.529Z,53.05
2022-12-19T09:51:09.493Z,52.89
2022-12-19T09:53:54.476Z,53.14
2022-12-19T09:56:30.059Z,52.96
2022-12-19T09:59:10.309Z,53.09
2022-12-19T10:01:53.582Z,53.07
2022-12-19T10:04:27.668Z,53.01
2022-12-19T10:07:21.208Z,53.01
2022-12-19T10:12:35.549Z,52.94
2022-12-19T10:13:03.673Z,53.06
2022-12-19T10:15:47.896Z,52.85
2022-12-19T10:18:41.699Z,52.83
2022-12-19T10:21:19.431Z,52.99
2022-12-19T10:24:03.536Z,52.76
2022-12-19T10:26:41.320Z,52.56
2022-12-19T10:29:39.337Z,52.67
2022-12-19T10:32:19.819Z,52.84
2022-12-19T10:34:52.673Z,52.80
2022-12-19T10:37:37.731Z,52.63
2022-12-19T10:40:27.466Z,52.79
2022-12-19T10:43:10.397Z,52.92
2022-12-19T10:45:47.139Z,52.82
2022-12-19T10:48:22.502Z,52.60
2022-12-19T10:51:06.368Z,52.48
2022-12-19T10:53:38.931Z,52.50
2022-12-19T10:56:22.841Z,52.28
2022-12-19T10:58:59.219Z,52.29
2022-12-19T11:01:34.724Z,52.26
2022-12-19T11:04:24.209Z,52.01
2022-12-19T11:07:08.460Z,51.84
2022-12-19T11:09:46.027Z,51.88
2022-12-19T11:16:30.339Z,51.74
2022-12-19T11:19:31.156Z,51.38
2022-12-19T11:25:22.507Z,51.73
2022-12-19T11:29:25.557Z,51.63
2022-12-19T11:29:31.408Z,51.36
2022-12-19T11:30:37.377Z,51.60
2022-12-19T11:33:20.823Z,51.15
2022-12-19T11:35:54.209Z,51.29
2022-12-19T11:38:37.309Z,51.27
2022-12-19T11:41:16.065Z,51.09
2022-12-19T11:43:57.339Z,50.95
2022-12-19T11:46:37.204Z,51.22
2022-12-19T11:49:16.445Z,51.29
2022-12-19T11:51:55.107Z,51.42
2022-12-19T11:54:32.457Z,51.06
2022-12-19T11:57:06.509Z,51.22
2022-12-19T11:59:41.373Z,50.81
2022-12-19T12:02:32.703Z,50.66
2022-12-19T12:05:27.426Z,50.33
2022-12-19T12:09:27.091Z,50.15
2022-12-19T12:17:34.103Z,49.96
2022-12-19T12:21:29.997Z,50.22
2022-12-19T12:30:47.685Z,50.14
2022-12-19T12:31:32.251Z,49.83
2022-12-19T12:31:44.253Z,49.89
2022-12-19T12:31:57.751Z,49.58
2022-12-19T12:32:04.349Z,49.60
2022-12-19T12:35:30.455Z,49.49
2022-12-19T12:38:33.040Z,49.07
2022-12-19T12:41:21.429Z,48.65
2022-12-19T12:51:09.073Z,48.47
2022-12-19T12:53:46.608Z,48.52
2022-12-19T12:56:20.885Z,48.49
2022-12-19T12:59:24.539Z,48.54
2022-12-19T13:01:58.553Z,48.35
2022-12-19T13:04:36.590Z,48.41
2022-12-19T13:07:28.999Z,48.27
2022-12-19T13:10:20.177Z,48.37
2022-12-19T13:13:02.612Z,48.48
2022-12-19T13:15:51.760Z,48.50
2022-12-19T13:18:41.199Z,48.55
2022-12-19T13:21:14.372Z,48.57
2022-12-19T13:23:50.001Z,48.53
2022-12-19T13:26:47.804Z,48.53
2022-12-19T13:29:43.377Z,48.83
2022-12-19T13:32:21.996Z,48.93
2022-12-19T13:35:53.972Z,48.99
2022-12-19T13:39:59.855Z,49.11
2022-12-19T13:41:01.430Z,49.15
2022-12-19T13:43:50.227Z,49.35
2022-12-19T13:46:34.998Z,49.50
2022-12-19T13:49:14.217Z,49.49
2022-12-19T13:51:58.098Z,49.44
2022-12-19T13:54:33.046Z,49.52
2022-12-19T13:57:21.015Z,49.64
2022-12-19T13:59:59.959Z,49.81
2022-12-19T14:02:45.367Z,49.85
2022-12-19T14:06:17.831Z,49.71
2022-12-19T14:08:25.544Z,49.85
2022-12-19T14:11:43.172Z,49.78
2022-12-19T14:14:20.605Z,50.09
2022-12-19T14:16:59.209Z,49.95
2022-12-19T14:19:39.543Z,50.01
2022-12-19T14:22:25.876Z,49.98
2022-12-19T14:25:44.159Z,50.35
2022-12-19T14:28:20.709Z,50.34
2022-12-19T14:30:59.839Z,50.58
2022-12-19T14:33:54.201Z,50.72
2022-12-19T14:36:40.354Z,50.75
2022-12-19T14:39:28.918Z,50.96
2022-12-19T14:43:57.277Z,50.82
2022-12-19T14:53:51.401Z,51.02
2022-12-19T14:54:02.164Z,50.82
2022-12-19T14:54:40.477Z,51.05
2022-12-19T14:58:17.217Z,50.75
2022-12-19T15:00:34.935Z,50.72
2022-12-19T15:03:30.353Z,50.65
2022-12-19T15:07:05.693Z,50.78
2022-12-19T15:10:58.596Z,50.80
2022-12-19T15:14:51.084Z,51.02
2022-12-19T15:15:41.352Z,51.06
2022-12-19T15:18:23.253Z,51.08
2022-12-19T15:20:59.187Z,51.23
2022-12-19T15:23:35.342Z,51.46
2022-12-19T15:26:13.120Z,51.16
2022-12-19T15:28:47.579Z,51.38
2022-12-19T15:31:38.555Z,51.05
2022-12-19T15:34:48.211Z,51.20
2022-12-19T15:37:19.135Z,51.65
2022-12-19T15:39:53.253Z,51.48
2022-12-19T15:42:29.058Z,51.62
2022-12-19T15:45:04.339Z,51.88
2022-12-19T15:47:38.318Z,51.71
2022-12-19T15:50:21.224Z,51.82
2022-12-19T15:52:56.192Z,52.08
2022-12-19T15:55:33.593Z,51.94
2022-12-19T15:58:09.300Z,52.14
2022-12-19T16:00:43.594Z,52.20
2022-12-19T16:03:25.618Z,52.07
2022-12-19T16:06:03.326Z,52.13
2022-12-19T16:08:36.763Z,52.00
2022-12-19T16:11:20.327Z,52.00
2022-12-19T16:14:00.125Z,52.38
2022-12-19T16:16:35.712Z,52.38
2022-12-19T16:19:21.181Z,52.38
2022-12-19T16:21:55.679Z,52.42
2022-12-19T16:24:29.944Z,52.29
2022-12-19T16:27:04.870Z,52.42
2022-12-19T16:29:41.689Z,52.42
2022-12-19T16:32:15.812Z,52.38
2022-12-19T16:34:48.611Z,52.58
2022-12-19T16:37:32.031Z,52.33
2022-12-19T16:40:08.097Z,52.62
2022-12-19T16:42:41.332Z,52.58
2022-12-19T16:45:21.820Z,52.51
2022-12-19T16:47:54.403Z,52.32
2022-12-19T16:50:27.827Z,52.71
2022-12-19T16:53:02.096Z,52.64
2022-12-19T16:55:34.948Z,52.82
2022-12-19T16:58:10.165Z,52.67
2022-12-19T17:00:47.060Z,53.01
2022-12-19T17:03:29.371Z,52.94
2022-12-19T17:06:03.027Z,52.85
2022-12-19T17:08:37.697Z,52.88
2022-12-19T17:11:16.649Z,53.03
2022-12-19T17:13:52.248Z,53.03
2022-12-19T17:16:29.318Z,52.83
2022-12-19T17:19:03.389Z,52.91
2022-12-19T17:21:35.837Z,52.90
2022-12-19T17:24:16.424Z,53.04
2022-12-19T17:26:49.907Z,53.08
2022-12-19T17:29:24.623Z,52.94
2022-12-19T17:31:59.544Z,53.37
2022-12-19T17:34:36.073Z,53.34
2022-12-19T17:37:11.797Z,53.26
2022-12-19T17:39:46.764Z,53.28
2022-12-19T17:42:23.842Z,53.12
2022-12-19T17:44:58.910Z,53.23
2022-12-19T17:47:33.664Z,53.15
2022-12-19T17:50:08.985Z,53.18
2022-12-19T17:52:41.641Z,53.28
2022-12-19T17:55:20.527Z,53.47
2022-12-19T17:57:56.705Z,53.45
2022-12-19T18:00:32.871Z,53.50
2022-12-19T18:03:11.990Z,53.17
2022-12-19T18:05:46.913Z,53.54
2022-12-19T18:08:33.908Z,53.33
2022-12-19T18:11:09.109Z,53.22
2022-12-19T18:13:41.334Z,53.12
2022-12-19T18:16:16.775Z,53.12
2022-12-19T18:18:50.721Z,53.38
2022-12-19T18:21:27.748Z,53.49
2022-12-19T18:24:02.428Z,53.95
2022-12-19T18:26:35.901Z,53.89
2022-12-19T18:29:09.282Z,53.42
2022-12-19T18:31:50.854Z,53.38
2022-12-19T18:34:27.464Z,53.48
2022-12-19T18:37:00.513Z,53.26
2022-12-19T18:39:38.256Z,53.60
2022-12-19T18:42:22.929Z,53.61
2022-12-19T18:44:56.079Z,53.57
2022-12-19T18:47:29.581Z,53.94
2022-12-19T18:50:04.743Z,53.74
2022-12-19T18:52:37.097Z,53.87
2022-12-19T18:55:18.805Z,53.65
2022-12-19T18:57:52.662Z,53.55
2022-12-19T19:00:27.495Z,53.67
2022-12-19T19:03:04.092Z,53.77
2022-12-19T19:05:37.808Z,53.97
2022-12-19T19:08:19.145Z,53.99
2022-12-19T19:10:55.791Z,53.86
2022-12-19T19:13:29.271Z,53.88
2022-12-19T19:16:03.965Z,53.98
2022-12-19T19:18:39.788Z,53.70
2022-12-19T19:21:15.550Z,53.77
2022-12-19T19:23:51.448Z,53.80
2022-12-19T19:26:25.385Z,53.84
2022-12-19T19:29:02.768Z,53.80
2022-12-19T19:31:41.230Z,54.03
2022-12-19T19:34:21.760Z,54.00
2022-12-19T19:36:58.802Z,53.80
2022-12-19T19:39:34.989Z,53.87
2022-12-19T19:42:08.411Z,53.88
2022-12-19T19:44:41.055Z,53.91
2022-12-19T19:47:17.857Z,53.84
2022-12-19T19:49:50.076Z,53.68
2022-12-19T19:52:22.213Z,53.98
2022-12-19T19:54:55.043Z,53.95
2022-12-19T19:57:28.449Z,54.10
2022-12-19T20:00:00.917Z,54.10
2022-12-19T20:02:35.005Z,54.06
2022-12-19T20:05:09.448Z,53.98
2022-12-19T20:07:43.785Z,53.96
2022-12-19T20:10:20.355Z,54.18
2022-12-19T20:12:54.182Z,54.28
2022-12-19T20:15:28.610Z,54.33
2022-12-19T20:18:03.111Z,54.33
2022-12-19T20:20:40.431Z,54.31
2022-12-19T20:23:16.058Z,54.58
2022-12-19T20:25:49.273Z,54.71
2022-12-19T20:28:22.571Z,54.90
2022-12-19T20:30:55.742Z,54.94
2022-12-19T20:33:30.119Z,55.02
2022-12-19T20:36:09.323Z,55.14
2022-12-19T20:38:43.724Z,55.26
2022-12-19T20:41:17.550Z,55.17
2022-12-19T20:43:52.468Z,55.13
2022-12-19T20:46:27.358Z,55.09
2022-12-19T20:49:04.118Z,55.04
2022-12-19T20:51:40.095Z,54.91
2022-12-19T20:54:13.442Z,54.94
2022-12-19T20:56:46.262Z,54.89
2022-12-19T20:59:19.998Z,54.83
2022-12-19T21:01:56.564Z,54.67
2022-12-19T21:04:32.002Z,54.71
2022-12-19T21:07:07.220Z,54.65
2022-12-19T21:09:40.870Z,54.57
2022-12-19T21:12:13.407Z,54.54
2022-12-19T21:14:47.012Z,54.53
2022-12-19T21:17:27.455Z,54.34
2022-12-19T21:20:02.726Z,54.33
2022-12-19T21:22:36.921Z,54.40
2022-12-19T21:25:10.666Z,54.49
2022-12-19T21:27:43.699Z,54.36
2022-12-19T21:30:19.318Z,54.41
2022-12-19T21:32:53.779Z,54.31
2022-12-19T21:35:27.187Z,54.45
2022-12-19T21:38:00.428Z,54.16
2022-12-19T21:40:32.846Z,54.34
2022-12-19T21:43:11.721Z,54.34
2022-12-19T21:45:45.410Z,54.18
2022-12-19T21:48:19.620Z,54.25
2022-12-19T21:50:59.136Z,54.24
2022-12-19T21:53:32.530Z,54.06
2022-12-19T21:56:18.379Z,54.16
2022-12-19T21:58:52.312Z,54.16
2022-12-19T22:01:25.913Z,54.10
2022-12-19T22:04:04.810Z,53.92
2022-12-19T22:06:40.097Z,53.98
2022-12-19T22:09:18.406Z,54.06
2022-12-19T22:11:51.846Z,54.02
2022-12-19T22:14:26.546Z,53.93
2022-12-19T22:16:59.209Z,53.95
2022-12-19T22:19:32.935Z,54.03
2022-12-19T22:22:06.602Z,54.07
2022-12-19T22:24:39.570Z,53.94
2022-12-19T22:27:13.245Z,53.88
2022-12-19T22:29:47.871Z,53.81
2022-12-19T22:32:20.896Z,53.74
2022-12-19T22:34:57.415Z,53.79
2022-12-19T22:37:32.210Z,53.84
2022-12-19T22:40:09.441Z,53.84
2022-12-19T22:42:42.610Z,53.80
2022-12-19T22:45:17.645Z,53.85
2022-12-19T22:47:51.193Z,53.94
2022-12-19T22:50:25.250Z,53.84
2022-12-19T22:52:57.701Z,53.79
2022-12-19T22:55:31.282Z,53.71
2022-12-19T22:58:04.967Z,53.76
2022-12-19T23:00:40.387Z,53.69
2022-12-19T23:03:13.375Z,53.72
2022-12-19T23:05:51.679Z,53.70
2022-12-19T23:08:24.108Z,53.67
2022-12-19T23:10:56.737Z,53.70
2022-12-19T23:13:28.647Z,53.64
2022-12-19T23:16:00.930Z,53.59
2022-12-19T23:18:32.950Z,53.69
2022-12-19T23:21:12.238Z,53.57
2022-12-19T23:23:45.428Z,53.44
2022-12-19T23:26:19.898Z,53.64
2022-12-19T23:28:56.010Z,53.69
2022-12-19T23:31:28.628Z,53.57
2022-12-19T23:34:03.050Z,53.34
2022-12-19T23:39:28.367Z,53.59
2022-12-19T23:42:00.450Z,53.28
2022-12-19T23:44:32.999Z,53.43
2022-12-19T23:47:05.141Z,53.41
2022-12-19T23:49:37.126Z,53.47
2022-12-19T23:52:09.314Z,53.23
2022-12-19T23:54:41.171Z,53.38
2022-12-19T23:57:13.211Z,53.43
2022-12-19T23:59:45.235Z,53.27
